Canadon Seco, Argentina
Current Conditions -  °F | °C
As of 4:00 AM on Sunday 23 Nov 2014 (Local Time) from SAVC Reporting Station
Clear Clear  
Wind Chill: 15°   Ceiling: Unl
Heat Index: 15°   Visibility: 6mi
Dew Point:   Wind: 14mph
Humidity: 51%   Direction: 290°WNW
Pressure: 29.56"   Gusts: NA
Location:  46.55°S, 67.58°W
Report Text: SAVC 230700Z 29012KT CAVOK 15/05 Q1001
Loading
Personal Weather Stations






























Interactive Weather Map New forecast layout! Learn more

10-Day Weather Forecast

Advertisements
Track Severe Weather on mobile